sensor_id;sensor_type;location;lat;lon;timestamp;P1;durP1;ratioP1;P2;durP2;ratioP2
41966;SDS011;27656;53.068;8.818;2022-12-18T00:02:04;49.10;;;23.87;;
41966;SDS011;27656;53.068;8.818;2022-12-18T00:04:31;48.43;;;23.50;;
41966;SDS011;27656;53.068;8.818;2022-12-18T00:06:57;50.33;;;24.30;;
41966;SDS011;27656;53.068;8.818;2022-12-18T00:09:24;44.93;;;22.90;;
41966;SDS011;27656;53.068;8.818;2022-12-18T00:12:03;48.83;;;24.33;;
41966;SDS011;27656;53.068;8.818;2022-12-18T00:14:41;48.80;;;22.07;;
41966;SDS011;27656;53.068;8.818;2022-12-18T00:17:08;52.53;;;23.77;;
41966;SDS011;27656;53.068;8.818;2022-12-18T00:19:35;47.73;;;22.07;;
41966;SDS011;27656;53.068;8.818;2022-12-18T00:22:01;52.83;;;23.27;;
41966;SDS011;27656;53.068;8.818;2022-12-18T00:24:28;44.07;;;22.50;;
41966;SDS011;27656;53.068;8.818;2022-12-18T00:26:54;46.40;;;22.93;;
41966;SDS011;27656;53.068;8.818;2022-12-18T00:29:21;47.07;;;23.03;;
41966;SDS011;27656;53.068;8.818;2022-12-18T00:31:52;46.20;;;22.87;;
41966;SDS011;27656;53.068;8.818;2022-12-18T00:34:18;47.57;;;21.80;;
41966;SDS011;27656;53.068;8.818;2022-12-18T00:36:46;48.67;;;22.43;;
41966;SDS011;27656;53.068;8.818;2022-12-18T00:39:13;47.13;;;22.27;;
41966;SDS011;27656;53.068;8.818;2022-12-18T00:41:40;47.13;;;21.33;;
41966;SDS011;27656;53.068;8.818;2022-12-18T00:44:25;41.57;;;20.57;;
41966;SDS011;27656;53.068;8.818;2022-12-18T00:46:52;42.07;;;21.53;;
41966;SDS011;27656;53.068;8.818;2022-12-18T00:49:19;48.43;;;21.67;;
41966;SDS011;27656;53.068;8.818;2022-12-18T00:51:46;45.83;;;22.23;;
41966;SDS011;27656;53.068;8.818;2022-12-18T00:54:13;44.87;;;21.60;;
41966;SDS011;27656;53.068;8.818;2022-12-18T00:56:40;44.50;;;21.40;;
41966;SDS011;27656;53.068;8.818;2022-12-18T00:59:15;44.50;;;21.27;;
41966;SDS011;27656;53.068;8.818;2022-12-18T01:01:43;49.30;;;22.63;;
41966;SDS011;27656;53.068;8.818;2022-12-18T01:04:11;40.17;;;21.03;;
41966;SDS011;27656;53.068;8.818;2022-12-18T01:06:37;44.33;;;21.83;;
41966;SDS011;27656;53.068;8.818;2022-12-18T01:09:05;43.40;;;22.07;;
41966;SDS011;27656;53.068;8.818;2022-12-18T01:11:31;47.60;;;22.50;;
41966;SDS011;27656;53.068;8.818;2022-12-18T01:13:59;45.53;;;21.40;;
41966;SDS011;27656;53.068;8.818;2022-12-18T01:16:26;40.73;;;20.53;;
41966;SDS011;27656;53.068;8.818;2022-12-18T01:18:53;45.43;;;21.33;;
41966;SDS011;27656;53.068;8.818;2022-12-18T01:21:21;43.50;;;21.63;;
41966;SDS011;27656;53.068;8.818;2022-12-18T01:23:50;41.80;;;20.77;;
41966;SDS011;27656;53.068;8.818;2022-12-18T01:26:18;40.70;;;21.47;;
41966;SDS011;27656;53.068;8.818;2022-12-18T01:28:44;45.10;;;21.80;;
41966;SDS011;27656;53.068;8.818;2022-12-18T01:31:15;39.60;;;20.03;;
41966;SDS011;27656;53.068;8.818;2022-12-18T01:33:45;39.60;;;19.60;;
41966;SDS011;27656;53.068;8.818;2022-12-18T01:36:18;38.37;;;19.83;;
41966;SDS011;27656;53.068;8.818;2022-12-18T01:38:49;40.33;;;19.30;;
41966;SDS011;27656;53.068;8.818;2022-12-18T01:41:18;41.07;;;19.53;;
41966;SDS011;27656;53.068;8.818;2022-12-18T01:43:50;43.77;;;19.07;;
41966;SDS011;27656;53.068;8.818;2022-12-18T01:46:19;35.60;;;19.30;;
41966;SDS011;27656;53.068;8.818;2022-12-18T01:48:47;41.17;;;19.80;;
41966;SDS011;27656;53.068;8.818;2022-12-18T01:51:15;38.17;;;18.87;;
41966;SDS011;27656;53.068;8.818;2022-12-18T01:53:42;39.43;;;19.07;;
41966;SDS011;27656;53.068;8.818;2022-12-18T01:56:11;41.07;;;20.77;;
41966;SDS011;27656;53.068;8.818;2022-12-18T01:58:58;39.53;;;20.40;;
41966;SDS011;27656;53.068;8.818;2022-12-18T02:01:26;38.43;;;19.33;;
41966;SDS011;27656;53.068;8.818;2022-12-18T02:03:53;34.17;;;18.67;;
41966;SDS011;27656;53.068;8.818;2022-12-18T02:06:21;39.60;;;19.70;;
41966;SDS011;27656;53.068;8.818;2022-12-18T02:09:07;38.00;;;18.93;;
41966;SDS011;27656;53.068;8.818;2022-12-18T02:14:22;38.30;;;17.90;;
41966;SDS011;27656;53.068;8.818;2022-12-18T02:16:52;36.27;;;17.83;;
41966;SDS011;27656;53.068;8.818;2022-12-18T02:19:40;41.10;;;19.40;;
41966;SDS011;27656;53.068;8.818;2022-12-18T02:27:56;40.10;;;18.30;;
41966;SDS011;27656;53.068;8.818;2022-12-18T02:30:26;36.10;;;18.40;;
41966;SDS011;27656;53.068;8.818;2022-12-18T02:32:53;43.43;;;18.67;;
41966;SDS011;27656;53.068;8.818;2022-12-18T02:35:22;36.60;;;18.77;;
41966;SDS011;27656;53.068;8.818;2022-12-18T02:37:50;38.67;;;17.57;;
41966;SDS011;27656;53.068;8.818;2022-12-18T02:40:20;33.80;;;17.27;;
41966;SDS011;27656;53.068;8.818;2022-12-18T02:42:48;35.27;;;16.97;;
41966;SDS011;27656;53.068;8.818;2022-12-18T02:45:15;41.57;;;18.63;;
41966;SDS011;27656;53.068;8.818;2022-12-18T02:47:42;36.10;;;16.30;;
41966;SDS011;27656;53.068;8.818;2022-12-18T02:50:34;35.73;;;18.00;;
41966;SDS011;27656;53.068;8.818;2022-12-18T03:04:26;33.53;;;16.77;;
41966;SDS011;27656;53.068;8.818;2022-12-18T03:06:58;29.43;;;16.17;;
41966;SDS011;27656;53.068;8.818;2022-12-18T03:09:29;32.33;;;16.37;;
41966;SDS011;27656;53.068;8.818;2022-12-18T03:12:17;36.50;;;16.47;;
41966;SDS011;27656;53.068;8.818;2022-12-18T03:17:29;28.63;;;15.23;;
41966;SDS011;27656;53.068;8.818;2022-12-18T03:19:58;33.33;;;15.77;;
41966;SDS011;27656;53.068;8.818;2022-12-18T03:22:27;34.37;;;15.97;;
41966;SDS011;27656;53.068;8.818;2022-12-18T03:24:56;32.37;;;16.27;;
41966;SDS011;27656;53.068;8.818;2022-12-18T03:27:23;29.97;;;14.63;;
41966;SDS011;27656;53.068;8.818;2022-12-18T03:30:00;28.60;;;14.47;;
41966;SDS011;27656;53.068;8.818;2022-12-18T03:32:36;29.73;;;15.27;;
41966;SDS011;27656;53.068;8.818;2022-12-18T03:35:06;28.87;;;15.60;;
41966;SDS011;27656;53.068;8.818;2022-12-18T03:37:34;29.10;;;15.13;;
41966;SDS011;27656;53.068;8.818;2022-12-18T03:40:01;30.27;;;15.17;;
41966;SDS011;27656;53.068;8.818;2022-12-18T03:45:19;28.93;;;14.77;;
41966;SDS011;27656;53.068;8.818;2022-12-18T03:55:40;29.00;;;14.10;;
41966;SDS011;27656;53.068;8.818;2022-12-18T03:58:07;30.07;;;14.17;;
41966;SDS011;27656;53.068;8.818;2022-12-18T04:00:34;28.50;;;13.60;;
41966;SDS011;27656;53.068;8.818;2022-12-18T04:03:01;28.23;;;14.80;;
41966;SDS011;27656;53.068;8.818;2022-12-18T04:05:28;29.43;;;13.90;;
41966;SDS011;27656;53.068;8.818;2022-12-18T04:07:55;27.93;;;13.77;;
41966;SDS011;27656;53.068;8.818;2022-12-18T04:10:22;29.37;;;14.43;;
41966;SDS011;27656;53.068;8.818;2022-12-18T04:12:49;30.40;;;13.37;;
41966;SDS011;27656;53.068;8.818;2022-12-18T04:15:15;27.57;;;13.47;;
41966;SDS011;27656;53.068;8.818;2022-12-18T04:17:48;28.73;;;13.50;;
41966;SDS011;27656;53.068;8.818;2022-12-18T04:20:16;27.80;;;13.57;;
41966;SDS011;27656;53.068;8.818;2022-12-18T04:22:42;26.37;;;12.27;;
41966;SDS011;27656;53.068;8.818;2022-12-18T04:25:09;25.57;;;13.37;;
41966;SDS011;27656;53.068;8.818;2022-12-18T04:27:35;27.30;;;12.90;;
41966;SDS011;27656;53.068;8.818;2022-12-18T04:30:02;29.33;;;12.93;;
41966;SDS011;27656;53.068;8.818;2022-12-18T04:32:29;28.70;;;13.93;;
41966;SDS011;27656;53.068;8.818;2022-12-18T04:34:55;26.93;;;11.63;;
41966;SDS011;27656;53.068;8.818;2022-12-18T04:37:22;26.60;;;13.03;;
41966;SDS011;27656;53.068;8.818;2022-12-18T04:39:49;25.40;;;12.73;;
41966;SDS011;27656;53.068;8.818;2022-12-18T04:42:15;24.57;;;13.37;;
41966;SDS011;27656;53.068;8.818;2022-12-18T04:44:41;24.67;;;12.60;;
41966;SDS011;27656;53.068;8.818;2022-12-18T04:47:08;25.37;;;12.80;;
41966;SDS011;27656;53.068;8.818;2022-12-18T04:49:34;25.40;;;12.43;;
41966;SDS011;27656;53.068;8.818;2022-12-18T04:52:01;27.63;;;12.20;;
41966;SDS011;27656;53.068;8.818;2022-12-18T04:54:27;27.17;;;12.53;;
41966;SDS011;27656;53.068;8.818;2022-12-18T04:56:54;25.63;;;13.07;;
41966;SDS011;27656;53.068;8.818;2022-12-18T04:59:20;26.10;;;11.30;;
41966;SDS011;27656;53.068;8.818;2022-12-18T05:01:47;23.77;;;12.33;;
41966;SDS011;27656;53.068;8.818;2022-12-18T05:04:13;25.57;;;12.13;;
41966;SDS011;27656;53.068;8.818;2022-12-18T05:06:40;25.73;;;12.70;;
41966;SDS011;27656;53.068;8.818;2022-12-18T05:09:06;24.73;;;12.47;;
41966;SDS011;27656;53.068;8.818;2022-12-18T05:11:33;28.10;;;12.40;;
41966;SDS011;27656;53.068;8.818;2022-12-18T05:13:59;27.73;;;12.67;;
41966;SDS011;27656;53.068;8.818;2022-12-18T05:16:26;21.90;;;10.83;;
41966;SDS011;27656;53.068;8.818;2022-12-18T05:18:52;21.30;;;11.37;;
41966;SDS011;27656;53.068;8.818;2022-12-18T05:21:19;24.93;;;11.93;;
41966;SDS011;27656;53.068;8.818;2022-12-18T05:23:46;22.37;;;11.60;;
41966;SDS011;27656;53.068;8.818;2022-12-18T05:26:14;25.73;;;11.10;;
41966;SDS011;27656;53.068;8.818;2022-12-18T05:28:43;22.53;;;11.33;;
41966;SDS011;27656;53.068;8.818;2022-12-18T05:31:10;24.73;;;12.10;;
41966;SDS011;27656;53.068;8.818;2022-12-18T05:33:37;20.00;;;11.37;;
41966;SDS011;27656;53.068;8.818;2022-12-18T05:36:05;24.67;;;10.90;;
41966;SDS011;27656;53.068;8.818;2022-12-18T05:38:34;20.90;;;10.57;;
41966;SDS011;27656;53.068;8.818;2022-12-18T05:41:02;22.90;;;11.33;;
41966;SDS011;27656;53.068;8.818;2022-12-18T05:43:29;25.13;;;11.80;;
41966;SDS011;27656;53.068;8.818;2022-12-18T05:45:56;23.33;;;11.07;;
41966;SDS011;27656;53.068;8.818;2022-12-18T05:48:23;18.83;;;9.93;;
41966;SDS011;27656;53.068;8.818;2022-12-18T05:50:50;23.37;;;10.77;;
41966;SDS011;27656;53.068;8.818;2022-12-18T05:53:17;22.33;;;10.67;;
41966;SDS011;27656;53.068;8.818;2022-12-18T05:55:45;23.00;;;10.87;;
41966;SDS011;27656;53.068;8.818;2022-12-18T05:58:12;21.43;;;10.50;;
41966;SDS011;27656;53.068;8.818;2022-12-18T06:00:42;22.50;;;10.47;;
41966;SDS011;27656;53.068;8.818;2022-12-18T06:03:10;19.70;;;10.60;;
41966;SDS011;27656;53.068;8.818;2022-12-18T06:05:39;23.03;;;11.60;;
41966;SDS011;27656;53.068;8.818;2022-12-18T06:08:06;19.37;;;9.47;;
41966;SDS011;27656;53.068;8.818;2022-12-18T06:10:33;19.63;;;10.23;;
41966;SDS011;27656;53.068;8.818;2022-12-18T06:13:00;19.97;;;10.03;;
41966;SDS011;27656;53.068;8.818;2022-12-18T06:15:26;24.87;;;11.93;;
41966;SDS011;27656;53.068;8.818;2022-12-18T06:17:53;21.47;;;10.50;;
41966;SDS011;27656;53.068;8.818;2022-12-18T06:20:19;22.47;;;11.37;;
41966;SDS011;27656;53.068;8.818;2022-12-18T06:22:46;21.33;;;10.83;;
41966;SDS011;27656;53.068;8.818;2022-12-18T06:25:12;25.60;;;11.13;;
41966;SDS011;27656;53.068;8.818;2022-12-18T06:27:39;20.67;;;10.80;;
41966;SDS011;27656;53.068;8.818;2022-12-18T06:30:07;19.03;;;9.63;;
41966;SDS011;27656;53.068;8.818;2022-12-18T06:32:34;22.03;;;10.70;;
41966;SDS011;27656;53.068;8.818;2022-12-18T06:35:01;20.93;;;10.67;;
41966;SDS011;27656;53.068;8.818;2022-12-18T06:37:27;21.87;;;10.80;;
41966;SDS011;27656;53.068;8.818;2022-12-18T06:39:54;23.57;;;11.37;;
41966;SDS011;27656;53.068;8.818;2022-12-18T06:42:20;20.50;;;10.63;;
41966;SDS011;27656;53.068;8.818;2022-12-18T06:44:48;19.97;;;9.97;;
41966;SDS011;27656;53.068;8.818;2022-12-18T06:47:15;23.90;;;10.53;;
41966;SDS011;27656;53.068;8.818;2022-12-18T06:49:41;25.67;;;10.97;;
41966;SDS011;27656;53.068;8.818;2022-12-18T06:52:08;17.07;;;9.73;;
41966;SDS011;27656;53.068;8.818;2022-12-18T06:54:34;20.73;;;9.77;;
41966;SDS011;27656;53.068;8.818;2022-12-18T06:57:01;19.47;;;10.00;;
41966;SDS011;27656;53.068;8.818;2022-12-18T06:59:27;19.30;;;9.90;;
41966;SDS011;27656;53.068;8.818;2022-12-18T07:01:54;19.43;;;9.73;;
41966;SDS011;27656;53.068;8.818;2022-12-18T07:04:21;22.27;;;9.70;;
41966;SDS011;27656;53.068;8.818;2022-12-18T07:06:47;22.00;;;10.23;;
41966;SDS011;27656;53.068;8.818;2022-12-18T07:09:13;21.43;;;10.53;;
41966;SDS011;27656;53.068;8.818;2022-12-18T07:11:40;19.33;;;10.33;;
41966;SDS011;27656;53.068;8.818;2022-12-18T07:14:06;21.10;;;10.60;;
41966;SDS011;27656;53.068;8.818;2022-12-18T07:16:33;19.73;;;10.10;;
41966;SDS011;27656;53.068;8.818;2022-12-18T07:18:59;20.30;;;10.03;;
41966;SDS011;27656;53.068;8.818;2022-12-18T07:21:26;19.80;;;10.20;;
41966;SDS011;27656;53.068;8.818;2022-12-18T07:23:52;20.47;;;10.37;;
41966;SDS011;27656;53.068;8.818;2022-12-18T07:26:19;19.40;;;9.60;;
41966;SDS011;27656;53.068;8.818;2022-12-18T07:28:46;22.47;;;10.40;;
41966;SDS011;27656;53.068;8.818;2022-12-18T07:31:17;17.60;;;9.70;;
41966;SDS011;27656;53.068;8.818;2022-12-18T07:33:47;21.70;;;10.13;;
41966;SDS011;27656;53.068;8.818;2022-12-18T07:36:14;18.53;;;9.73;;
41966;SDS011;27656;53.068;8.818;2022-12-18T07:38:40;22.77;;;11.33;;
41966;SDS011;27656;53.068;8.818;2022-12-18T07:41:08;19.73;;;10.93;;
41966;SDS011;27656;53.068;8.818;2022-12-18T07:43:36;20.10;;;10.33;;
41966;SDS011;27656;53.068;8.818;2022-12-18T07:46:03;21.20;;;10.63;;
41966;SDS011;27656;53.068;8.818;2022-12-18T07:48:30;26.10;;;10.93;;
41966;SDS011;27656;53.068;8.818;2022-12-18T07:50:58;20.93;;;9.90;;
41966;SDS011;27656;53.068;8.818;2022-12-18T07:53:27;18.43;;;10.03;;
41966;SDS011;27656;53.068;8.818;2022-12-18T07:55:58;25.73;;;11.53;;
41966;SDS011;27656;53.068;8.818;2022-12-18T07:58:45;19.90;;;10.37;;
41966;SDS011;27656;53.068;8.818;2022-12-18T08:01:14;25.80;;;10.67;;
41966;SDS011;27656;53.068;8.818;2022-12-18T08:03:40;22.13;;;9.67;;
41966;SDS011;27656;53.068;8.818;2022-12-18T08:06:08;17.43;;;10.53;;
41966;SDS011;27656;53.068;8.818;2022-12-18T08:08:35;24.03;;;10.77;;
41966;SDS011;27656;53.068;8.818;2022-12-18T08:11:02;23.40;;;11.13;;
41966;SDS011;27656;53.068;8.818;2022-12-18T08:13:29;28.33;;;10.87;;
41966;SDS011;27656;53.068;8.818;2022-12-18T08:15:56;24.33;;;11.17;;
41966;SDS011;27656;53.068;8.818;2022-12-18T08:18:24;20.90;;;10.83;;
41966;SDS011;27656;53.068;8.818;2022-12-18T08:20:52;19.97;;;10.03;;
41966;SDS011;27656;53.068;8.818;2022-12-18T08:23:19;20.80;;;10.47;;
41966;SDS011;27656;53.068;8.818;2022-12-18T08:25:45;17.10;;;9.87;;
41966;SDS011;27656;53.068;8.818;2022-12-18T08:28:12;22.17;;;10.13;;
41966;SDS011;27656;53.068;8.818;2022-12-18T08:30:39;16.83;;;10.03;;
41966;SDS011;27656;53.068;8.818;2022-12-18T08:33:05;22.50;;;10.70;;
41966;SDS011;27656;53.068;8.818;2022-12-18T08:35:34;18.77;;;10.57;;
41966;SDS011;27656;53.068;8.818;2022-12-18T08:38:09;19.10;;;10.10;;
41966;SDS011;27656;53.068;8.818;2022-12-18T08:40:35;19.27;;;10.10;;
41966;SDS011;27656;53.068;8.818;2022-12-18T08:43:02;26.20;;;10.90;;
41966;SDS011;27656;53.068;8.818;2022-12-18T08:45:47;20.07;;;10.53;;
41966;SDS011;27656;53.068;8.818;2022-12-18T08:48:13;21.20;;;10.33;;
41966;SDS011;27656;53.068;8.818;2022-12-18T08:50:56;20.90;;;10.57;;
41966;SDS011;27656;53.068;8.818;2022-12-18T08:53:24;18.50;;;10.77;;
41966;SDS011;27656;53.068;8.818;2022-12-18T08:55:50;19.07;;;10.63;;
41966;SDS011;27656;53.068;8.818;2022-12-18T08:58:16;19.13;;;10.57;;
41966;SDS011;27656;53.068;8.818;2022-12-18T09:00:43;20.23;;;10.80;;
41966;SDS011;27656;53.068;8.818;2022-12-18T09:03:13;24.17;;;11.00;;
41966;SDS011;27656;53.068;8.818;2022-12-18T09:05:40;19.60;;;11.20;;
41966;SDS011;27656;53.068;8.818;2022-12-18T09:08:07;21.43;;;10.93;;
41966;SDS011;27656;53.068;8.818;2022-12-18T09:10:34;23.90;;;10.73;;
41966;SDS011;27656;53.068;8.818;2022-12-18T09:13:09;20.63;;;10.87;;
41966;SDS011;27656;53.068;8.818;2022-12-18T09:15:46;21.33;;;11.20;;
41966;SDS011;27656;53.068;8.818;2022-12-18T09:18:20;19.20;;;10.63;;
41966;SDS011;27656;53.068;8.818;2022-12-18T09:20:47;18.40;;;10.43;;
41966;SDS011;27656;53.068;8.818;2022-12-18T09:23:14;20.47;;;10.57;;
41966;SDS011;27656;53.068;8.818;2022-12-18T09:25:40;21.90;;;11.63;;
41966;SDS011;27656;53.068;8.818;2022-12-18T09:28:13;19.80;;;11.17;;
41966;SDS011;27656;53.068;8.818;2022-12-18T09:30:42;21.17;;;10.87;;
41966;SDS011;27656;53.068;8.818;2022-12-18T09:33:13;21.40;;;11.23;;
41966;SDS011;27656;53.068;8.818;2022-12-18T09:35:40;23.13;;;11.83;;
41966;SDS011;27656;53.068;8.818;2022-12-18T09:38:07;21.63;;;11.53;;
41966;SDS011;27656;53.068;8.818;2022-12-18T09:40:36;22.10;;;10.80;;
41966;SDS011;27656;53.068;8.818;2022-12-18T09:43:09;22.90;;;10.60;;
41966;SDS011;27656;53.068;8.818;2022-12-18T09:45:42;24.03;;;11.10;;
41966;SDS011;27656;53.068;8.818;2022-12-18T09:48:19;20.77;;;10.97;;
41966;SDS011;27656;53.068;8.818;2022-12-18T09:50:48;25.70;;;11.90;;
41966;SDS011;27656;53.068;8.818;2022-12-18T09:53:16;21.27;;;10.73;;
41966;SDS011;27656;53.068;8.818;2022-12-18T09:55:46;18.80;;;10.43;;
41966;SDS011;27656;53.068;8.818;2022-12-18T09:58:16;22.13;;;11.17;;
41966;SDS011;27656;53.068;8.818;2022-12-18T10:00:53;23.73;;;10.30;;
41966;SDS011;27656;53.068;8.818;2022-12-18T10:03:20;20.90;;;10.83;;
41966;SDS011;27656;53.068;8.818;2022-12-18T10:06:05;21.77;;;11.13;;
41966;SDS011;27656;53.068;8.818;2022-12-18T10:08:39;20.73;;;10.73;;
41966;SDS011;27656;53.068;8.818;2022-12-18T10:14:00;22.23;;;10.93;;
41966;SDS011;27656;53.068;8.818;2022-12-18T10:24:42;20.60;;;10.60;;
41966;SDS011;27656;53.068;8.818;2022-12-18T10:27:16;19.83;;;10.80;;
41966;SDS011;27656;53.068;8.818;2022-12-18T10:29:44;21.00;;;10.90;;
41966;SDS011;27656;53.068;8.818;2022-12-18T10:32:15;17.43;;;10.40;;
41966;SDS011;27656;53.068;8.818;2022-12-18T10:34:47;21.70;;;10.23;;
41966;SDS011;27656;53.068;8.818;2022-12-18T10:37:23;20.17;;;10.27;;
41966;SDS011;27656;53.068;8.818;2022-12-18T10:40:12;21.40;;;11.43;;
41966;SDS011;27656;53.068;8.818;2022-12-18T10:42:59;22.50;;;11.57;;
41966;SDS011;27656;53.068;8.818;2022-12-18T10:45:30;21.13;;;10.60;;
41966;SDS011;27656;53.068;8.818;2022-12-18T10:47:57;17.23;;;10.13;;
41966;SDS011;27656;53.068;8.818;2022-12-18T10:50:25;19.37;;;10.77;;
41966;SDS011;27656;53.068;8.818;2022-12-18T10:53:22;20.27;;;11.07;;
41966;SDS011;27656;53.068;8.818;2022-12-18T10:55:50;21.13;;;10.50;;
41966;SDS011;27656;53.068;8.818;2022-12-18T11:01:02;19.50;;;10.80;;
41966;SDS011;27656;53.068;8.818;2022-12-18T11:03:30;19.03;;;10.63;;
41966;SDS011;27656;53.068;8.818;2022-12-18T11:06:06;21.50;;;11.30;;
41966;SDS011;27656;53.068;8.818;2022-12-18T11:08:35;22.33;;;10.80;;
41966;SDS011;27656;53.068;8.818;2022-12-18T11:11:03;22.50;;;10.57;;
41966;SDS011;27656;53.068;8.818;2022-12-18T11:13:30;18.50;;;10.63;;
41966;SDS011;27656;53.068;8.818;2022-12-18T11:15:58;18.17;;;10.10;;
41966;SDS011;27656;53.068;8.818;2022-12-18T11:18:26;21.70;;;10.57;;
41966;SDS011;27656;53.068;8.818;2022-12-18T11:23:43;20.17;;;9.77;;
41966;SDS011;27656;53.068;8.818;2022-12-18T11:26:13;20.10;;;10.13;;
41966;SDS011;27656;53.068;8.818;2022-12-18T11:31:23;17.47;;;10.17;;
41966;SDS011;27656;53.068;8.818;2022-12-18T11:33:56;18.50;;;10.33;;
41966;SDS011;27656;53.068;8.818;2022-12-18T11:36:46;21.50;;;11.33;;
41966;SDS011;27656;53.068;8.818;2022-12-18T11:39:36;23.80;;;11.57;;
41966;SDS011;27656;53.068;8.818;2022-12-18T11:42:27;19.13;;;11.50;;
41966;SDS011;27656;53.068;8.818;2022-12-18T11:45:02;19.57;;;10.40;;
41966;SDS011;27656;53.068;8.818;2022-12-18T11:47:44;17.70;;;9.40;;
41966;SDS011;27656;53.068;8.818;2022-12-18T11:50:17;18.03;;;9.73;;
41966;SDS011;27656;53.068;8.818;2022-12-18T11:52:45;16.40;;;8.93;;
41966;SDS011;27656;53.068;8.818;2022-12-18T11:58:03;14.77;;;8.93;;
41966;SDS011;27656;53.068;8.818;2022-12-18T12:09:52;18.30;;;8.70;;
41966;SDS011;27656;53.068;8.818;2022-12-18T12:12:30;18.30;;;8.87;;
41966;SDS011;27656;53.068;8.818;2022-12-18T12:15:19;17.00;;;9.87;;
41966;SDS011;27656;53.068;8.818;2022-12-18T12:26:06;16.17;;;9.27;;
41966;SDS011;27656;53.068;8.818;2022-12-18T12:29:00;14.63;;;8.93;;
41966;SDS011;27656;53.068;8.818;2022-12-18T12:34:29;14.87;;;8.67;;
41966;SDS011;27656;53.068;8.818;2022-12-18T12:37:16;15.60;;;8.77;;
41966;SDS011;27656;53.068;8.818;2022-12-18T12:39:49;17.77;;;8.60;;
41966;SDS011;27656;53.068;8.818;2022-12-18T12:42:25;13.13;;;9.00;;
41966;SDS011;27656;53.068;8.818;2022-12-18T12:45:30;13.50;;;8.87;;
41966;SDS011;27656;53.068;8.818;2022-12-18T12:48:20;16.03;;;9.10;;
41966;SDS011;27656;53.068;8.818;2022-12-18T12:50:54;18.10;;;9.57;;
41966;SDS011;27656;53.068;8.818;2022-12-18T12:53:23;15.13;;;9.20;;
41966;SDS011;27656;53.068;8.818;2022-12-18T12:55:53;17.20;;;9.77;;
41966;SDS011;27656;53.068;8.818;2022-12-18T13:01:22;17.93;;;9.57;;
41966;SDS011;27656;53.068;8.818;2022-12-18T13:03:59;13.63;;;8.60;;
41966;SDS011;27656;53.068;8.818;2022-12-18T13:09:14;18.77;;;9.00;;
41966;SDS011;27656;53.068;8.818;2022-12-18T13:14:34;16.87;;;9.63;;
41966;SDS011;27656;53.068;8.818;2022-12-18T13:17:15;19.23;;;10.10;;
41966;SDS011;27656;53.068;8.818;2022-12-18T13:19:43;15.03;;;9.10;;
41966;SDS011;27656;53.068;8.818;2022-12-18T13:22:23;17.30;;;9.33;;
41966;SDS011;27656;53.068;8.818;2022-12-18T13:24:54;16.23;;;9.73;;
41966;SDS011;27656;53.068;8.818;2022-12-18T13:48:32;20.73;;;10.03;;
41966;SDS011;27656;53.068;8.818;2022-12-18T13:51:01;17.73;;;9.53;;
41966;SDS011;27656;53.068;8.818;2022-12-18T13:53:30;16.37;;;9.50;;
41966;SDS011;27656;53.068;8.818;2022-12-18T13:55:59;18.33;;;10.13;;
41966;SDS011;27656;53.068;8.818;2022-12-18T13:58:26;20.23;;;9.70;;
41966;SDS011;27656;53.068;8.818;2022-12-18T14:00:52;17.47;;;9.90;;
41966;SDS011;27656;53.068;8.818;2022-12-18T14:03:21;17.27;;;9.70;;
41966;SDS011;27656;53.068;8.818;2022-12-18T14:05:53;18.13;;;9.20;;
41966;SDS011;27656;53.068;8.818;2022-12-18T14:08:25;16.83;;;10.27;;
41966;SDS011;27656;53.068;8.818;2022-12-18T14:10:57;17.87;;;9.77;;
41966;SDS011;27656;53.068;8.818;2022-12-18T14:13:27;17.47;;;9.73;;
41966;SDS011;27656;53.068;8.818;2022-12-18T14:15:56;17.03;;;9.43;;
41966;SDS011;27656;53.068;8.818;2022-12-18T14:21:19;17.77;;;9.77;;
41966;SDS011;27656;53.068;8.818;2022-12-18T14:23:48;17.50;;;9.47;;
41966;SDS011;27656;53.068;8.818;2022-12-18T14:26:28;19.73;;;9.83;;
41966;SDS011;27656;53.068;8.818;2022-12-18T14:28:56;18.77;;;10.13;;
41966;SDS011;27656;53.068;8.818;2022-12-18T14:31:25;19.93;;;10.30;;
41966;SDS011;27656;53.068;8.818;2022-12-18T14:33:52;17.83;;;8.97;;
41966;SDS011;27656;53.068;8.818;2022-12-18T14:36:24;18.37;;;9.30;;
41966;SDS011;27656;53.068;8.818;2022-12-18T14:38:52;19.27;;;9.53;;
41966;SDS011;27656;53.068;8.818;2022-12-18T14:41:20;15.67;;;9.33;;
41966;SDS011;27656;53.068;8.818;2022-12-18T14:43:48;17.90;;;9.70;;
41966;SDS011;27656;53.068;8.818;2022-12-18T14:46:34;14.07;;;8.87;;
41966;SDS011;27656;53.068;8.818;2022-12-18T14:49:03;15.73;;;9.13;;
41966;SDS011;27656;53.068;8.818;2022-12-18T14:52:03;15.53;;;9.33;;
41966;SDS011;27656;53.068;8.818;2022-12-18T14:54:33;20.10;;;9.60;;
41966;SDS011;27656;53.068;8.818;2022-12-18T14:59:49;20.67;;;9.77;;
41966;SDS011;27656;53.068;8.818;2022-12-18T15:02:23;20.77;;;9.77;;
41966;SDS011;27656;53.068;8.818;2022-12-18T15:05:05;19.57;;;9.93;;
41966;SDS011;27656;53.068;8.818;2022-12-18T15:07:51;18.10;;;9.43;;
41966;SDS011;27656;53.068;8.818;2022-12-18T15:10:19;16.10;;;9.20;;
41966;SDS011;27656;53.068;8.818;2022-12-18T15:20:40;20.50;;;9.73;;
41966;SDS011;27656;53.068;8.818;2022-12-18T15:23:22;19.10;;;9.50;;
41966;SDS011;27656;53.068;8.818;2022-12-18T15:26:06;19.17;;;10.07;;
41966;SDS011;27656;53.068;8.818;2022-12-18T15:28:39;17.93;;;9.30;;
41966;SDS011;27656;53.068;8.818;2022-12-18T15:33:44;20.50;;;9.50;;
41966;SDS011;27656;53.068;8.818;2022-12-18T15:36:16;18.57;;;9.10;;
41966;SDS011;27656;53.068;8.818;2022-12-18T15:38:52;18.30;;;9.67;;
41966;SDS011;27656;53.068;8.818;2022-12-18T15:41:31;17.47;;;9.20;;
41966;SDS011;27656;53.068;8.818;2022-12-18T15:44:01;19.40;;;9.60;;
41966;SDS011;27656;53.068;8.818;2022-12-18T15:46:29;22.00;;;9.83;;
41966;SDS011;27656;53.068;8.818;2022-12-18T15:48:57;15.23;;;8.77;;
41966;SDS011;27656;53.068;8.818;2022-12-18T15:51:34;20.30;;;9.17;;
41966;SDS011;27656;53.068;8.818;2022-12-18T15:54:02;17.13;;;8.87;;
41966;SDS011;27656;53.068;8.818;2022-12-18T15:56:30;18.90;;;8.93;;
41966;SDS011;27656;53.068;8.818;2022-12-18T15:59:18;18.27;;;8.77;;
41966;SDS011;27656;53.068;8.818;2022-12-18T16:01:46;22.07;;;9.60;;
41966;SDS011;27656;53.068;8.818;2022-12-18T16:04:15;16.67;;;8.87;;
41966;SDS011;27656;53.068;8.818;2022-12-18T16:06:42;18.10;;;8.93;;
41966;SDS011;27656;53.068;8.818;2022-12-18T16:09:29;21.97;;;9.30;;
41966;SDS011;27656;53.068;8.818;2022-12-18T16:11:55;18.33;;;8.67;;
41966;SDS011;27656;53.068;8.818;2022-12-18T16:14:23;22.57;;;9.27;;
41966;SDS011;27656;53.068;8.818;2022-12-18T16:17:00;17.63;;;9.20;;
41966;SDS011;27656;53.068;8.818;2022-12-18T16:19:27;19.63;;;9.80;;
41966;SDS011;27656;53.068;8.818;2022-12-18T16:21:55;18.23;;;9.83;;
41966;SDS011;27656;53.068;8.818;2022-12-18T16:24:26;18.43;;;9.30;;
41966;SDS011;27656;53.068;8.818;2022-12-18T16:26:55;18.37;;;9.40;;
41966;SDS011;27656;53.068;8.818;2022-12-18T16:29:23;18.83;;;9.27;;
41966;SDS011;27656;53.068;8.818;2022-12-18T16:31:54;21.63;;;9.40;;
41966;SDS011;27656;53.068;8.818;2022-12-18T16:34:27;17.07;;;8.87;;
41966;SDS011;27656;53.068;8.818;2022-12-18T16:36:59;20.63;;;10.10;;
41966;SDS011;27656;53.068;8.818;2022-12-18T16:39:31;20.13;;;9.07;;
41966;SDS011;27656;53.068;8.818;2022-12-18T16:42:01;20.50;;;10.70;;
41966;SDS011;27656;53.068;8.818;2022-12-18T16:44:31;22.10;;;9.90;;
41966;SDS011;27656;53.068;8.818;2022-12-18T16:46:58;18.73;;;9.60;;